Wetterstation Tischlerei-Herzog
Wetterdaten: aktuell Donnerstag, 17.06.2021 21:58
Datum Zeit Temp. N Temp. S Temp. Htte Aussentemp. Temp. Bo Feuchte Htt Luftfeuchte Luftdruck Niederschl. Taupunkt
17.06.2021 21:58 23,3 C 24,4 C 24,3 C 23,3 C 23,9 C 20 % 38 % 1011,2 hPa 0,0 l/m 8,2 C
17.06.2021 20:58 26,9 C 26,9 C 27,7 C 26,9 C 24,1 C 20 % 27 % 1009,6 hPa 0,0 l/m 6,3 C
17.06.2021 19:58 30,6 C 29,0 C 30,8 C 29,0 C 24,3 C 20 % 20 % 1009,3 hPa 0,0 l/m 3,8 C
17.06.2021 18:58 35,4 C 31,7 C 33,6 C 31,7 C 24,4 C 20 % 20 % 1008,9 hPa 0,0 l/m 6,0 C
17.06.2021 17:58 35,9 C 32,4 C 34,5 C 32,4 C 24,3 C 20 % 20 % 1008,9 hPa 0,0 l/m 6,5 C
17.06.2021 16:58 32,8 C 33,1 C 34,8 C 32,8 C 24,3 C 20 % 20 % 1008,8 hPa 0,0 l/m 6,9 C
17.06.2021 15:58 32,5 C 33,7 C 34,4 C 32,5 C 24,2 C 20 % 20 % 1008,8 hPa 0,0 l/m 6,6 C
17.06.2021 14:58 32,7 C 33,7 C 34,2 C 32,7 C 23,9 C 20 % 20 % 1009,9 hPa 0,0 l/m 6,8 C
17.06.2021 13:58 32,5 C 32,6 C 33,1 C 32,5 C 23,3 C 20 % 20 % 1009,9 hPa 0,0 l/m 6,6 C
17.06.2021 12:58 31,7 C 32,4 C 32,5 C 31,7 C 22,5 C 20 % 20 % 1010,0 hPa 0,0 l/m 6,0 C
17.06.2021 11:58 32,1 C 31,4 C 31,0 C 31,4 C 21,7 C 20 % 20 % 1011,1 hPa 0,0 l/m 5,7 C
17.06.2021 10:58 33,5 C 29,6 C 30,0 C 29,6 C 21,0 C 20 % 20 % 1011,3 hPa 0,0 l/m 4,2 C
17.06.2021 09:58 32,0 C 27,8 C 28,4 C 27,8 C 20,5 C 20 % 23 % 1011,6 hPa 0,0 l/m 4,8 C
17.06.2021 08:58 30,8 C 26,0 C 26,5 C 26,0 C 20,2 C 20 % 30 % 1011,8 hPa 0,0 l/m 7,1 C
17.06.2021 07:58 27,6 C 23,6 C 24,3 C 23,6 C 20,0 C 21 % 35 % 1011,1 hPa 0,0 l/m 7,2 C
17.06.2021 06:58 21,6 C 20,9 C 19,4 C 20,9 C 20,1 C 33 % 41 % 1011,5 hPa 0,0 l/m 7,2 C
17.06.2021 05:58 17,4 C 18,8 C 17,7 C 17,4 C 20,2 C 48 % 45 % 1012,0 hPa 0,0 l/m 5,3 C
17.06.2021 04:58 17,2 C 18,4 C 17,7 C 17,2 C 20,4 C 56 % 45 % 1012,1 hPa 0,0 l/m 5,2 C
17.06.2021 03:58 16,9 C 17,9 C 17,5 C 16,9 C 20,7 C 74 % 50 % 1012,1 hPa 0,0 l/m 6,4 C
17.06.2021 02:58 17,0 C 18,0 C 17,4 C 17,0 C 21,0 C 73 % 53 % 1012,1 hPa 0,0 l/m 7,4 C
17.06.2021 01:57 17,1 C 18,1 C 17,5 C 17,1 C 21,2 C 71 % 53 % 1012,1 hPa 0,0 l/m 7,4 C
17.06.2021 00:58 17,2 C 18,5 C 18,1 C 17,2 C 21,5 C 62 % 51 % 1012,1 hPa 0,0 l/m 7,0 C
16.06.2021 23:58 18,7 C 19,8 C 19,5 C 18,7 C 21,8 C 55 % 51 % 1011,8 hPa 0,0 l/m 8,4 C
16.06.2021 23:03 20,2 C 21,1 C 21,1 C 20,2 C 22,0 C 49 % 48 % 1011,6 hPa 0,0 l/m 8,8 C
_ Min-Zeit 01:38 02:23 02:18 01:38 07:43 08:13 10:38 17:08 - 20:33
Minimum _ 16,7 C 17,9 C 17,3 C 16,7 C 20,0 C 20 % 20 % 1008,7 hPa - 2,7 C
_ Max-Zeit 17:58 15:48 17:08 17:08 17:08 03:13 02:23 01:38 23:03 23:13
Maximum _ 35,9 C 34,2 C 35,0 C 33,4 C 24,4 C 76 % 54 % 1012,1 hPa 0,0 l/m 8,9 C
Durchschnitt _ 26,1 C 25,6 C 25,9 C 25,0 C 22,1 C 35 % 34 % 1010,9 hPa #0,0 l/m 6,5 C
Tischlerei Herzog